FAR weather

Hector International Airport
Fargo, North Dakota, United States

Public forecast

Using degrees Fahrenheit for public forecast. Weather courtesy of forecast.io.

Current aviation weather report (METAR) for Hector International Airport

Retrieved 2020/05/30 08:53 UTC (45 minutes ago):

KFAR 300853Z AUTO 36009KT 10SM OVC049 10/03 A3029 RMK AO2 SLP260 T01000033 51013

Aviation forecast (TAF) for Hector International Airport

Retrieved 2020/05/30 06:22 UTC (3 hours ago):

TAF KFAR 300520Z 3006/3106 01005KT P6SM SCT080 FM300900 02007KT P6SM SCT200 FM301700 36005KT P6SM SKC FM310200 VRB03KT P6SM SKC